Time;durP1;ratioP1;P1;durP2;ratioP2;P2;SDS_P1;SDS_P2;PMS_P1;PMS_P2;Temp;Humidity;BMP_temperature;BMP_pressure;BME280_temperature;BME280_humidity;BME280_pressure;Samples;Min_cycle;Max_cycle;Signal;HPM_P1;HPM_P2
2022/10/25 00:01:35;;;;;;;24.90;12.43;;;12.70;99.90;;;;;;5028157;28;20153;-87
2022/10/25 00:04:01;;;;;;;22.13;11.40;;;12.60;99.90;;;;;;5063115;28;20048;-87
2022/10/25 00:06:26;;;;;;;24.35;12.05;;;12.60;99.90;;;;;;5016540;28;20055;-87
2022/10/25 00:08:52;;;;;;;18.65;11.57;;;12.60;99.90;;;;;;5039120;28;20582;-87
2022/10/25 00:11:26;;;;;;;23.35;12.43;;;12.50;99.90;;;;;;5039616;28;20052;-86
2022/10/25 00:13:52;;;;;;;25.92;12.20;;;12.60;99.90;;;;;;5039656;28;20059;-87
2022/10/25 00:16:25;;;;;;;26.67;13.48;;;12.60;99.90;;;;;;5056712;28;20060;-86
2022/10/25 00:18:50;;;;;;;20.90;12.32;;;12.50;99.90;;;;;;5055961;28;20241;-87
2022/10/25 00:21:17;;;;;;;37.25;15.45;;;12.50;99.90;;;;;;5039459;28;20059;-86
2022/10/25 00:23:42;;;;;;;22.45;13.52;;;12.60;99.90;;;;;;5051467;28;20052;-87
2022/10/25 00:26:08;;;;;;;27.40;13.77;;;12.50;99.90;;;;;;5045909;28;20052;-85
2022/10/25 00:28:34;;;;;;;23.88;14.15;;;12.50;99.90;;;;;;5038660;28;20056;-86
2022/10/25 00:31:07;;;;;;;26.23;14.48;;;12.40;99.90;;;;;;5081773;28;20059;-84
2022/10/25 00:33:34;;;;;;;25.30;14.55;;;12.40;99.90;;;;;;5042873;28;20052;-85
2022/10/25 00:36:16;;;;;;;29.55;14.80;;;12.50;99.90;;;;;;5037947;28;20055;-86
2022/10/25 00:38:43;;;;;;;31.65;16.25;;;12.50;99.90;;;;;;5039302;28;20123;-87
2022/10/25 00:41:09;;;;;;;27.05;15.23;;;12.60;99.90;;;;;;5038168;28;20121;-87
2022/10/25 00:43:46;;;;;;;28.52;15.75;;;12.60;99.90;;;;;;5038058;28;20556;-87
2022/10/25 00:46:23;;;;;;;31.20;16.83;;;12.60;99.90;;;;;;5037601;28;20290;-86
2022/10/25 00:49:04;;;;;;;29.17;17.42;;;12.70;99.90;;;;;;5054344;28;20048;-87
2022/10/25 00:51:53;;;;;;;31.88;17.85;;;12.70;99.90;;;;;;5055080;28;20106;-86
2022/10/25 00:54:30;;;;;;;25.35;14.57;;;12.80;99.90;;;;;;5053714;28;20079;-86
2022/10/25 00:56:57;;;;;;;27.75;16.48;;;12.90;99.90;;;;;;5071120;28;20052;-85
2022/10/25 00:59:24;;;;;;;36.90;16.73;;;12.90;99.90;;;;;;5053868;28;20060;-86
2022/10/25 01:01:51;;;;;;;33.38;17.73;;;12.90;99.90;;;;;;5070904;28;20484;-86
2022/10/25 01:04:17;;;;;;;29.77;14.73;;;12.90;99.90;;;;;;5037503;28;20088;-87
2022/10/25 01:06:47;;;;;;;29.27;15.93;;;12.90;99.90;;;;;;5037538;28;20068;-87
2022/10/25 01:09:19;;;;;;;25.60;15.35;;;12.90;99.90;;;;;;5040664;28;20041;-86
2022/10/25 01:11:44;;;;;;;28.40;15.65;;;12.90;99.90;;;;;;5058062;28;20392;-87
2022/10/25 01:14:11;;;;;;;31.02;16.27;;;12.90;99.90;;;;;;5082825;28;20060;-86
2022/10/25 01:17:05;;;;;;;26.35;16.75;;;13.00;99.90;;;;;;5077989;28;20048;-86
2022/10/25 01:19:50;;;;;;;28.33;15.73;;;13.00;99.90;;;;;;5072614;28;20056;-87
2022/10/25 01:22:21;;;;;;;;;;;13.00;99.90;;;;;;5057689;28;20294;-85
2022/10/25 01:24:56;;;;;;;27.52;14.68;;;13.00;99.90;;;;;;5070691;28;20340;-86
2022/10/25 01:27:46;;;;;;;29.20;15.32;;;13.00;99.90;;;;;;5053075;28;20111;-85
2022/10/25 01:30:22;;;;;;;22.15;14.23;;;13.10;99.90;;;;;;5036704;28;20088;-85
2022/10/25 01:33:12;;;;;;;28.02;14.80;;;13.10;99.90;;;;;;5028212;28;20045;-86
2022/10/25 01:35:58;;;;;;;23.75;14.15;;;13.10;99.90;;;;;;5042293;28;20052;-85
2022/10/25 01:38:37;;;;;;;21.95;14.38;;;13.10;99.90;;;;;;5036488;28;20052;-88
2022/10/25 01:41:35;;;;;;;22.45;14.18;;;13.10;99.90;;;;;;5027659;28;20127;-86
2022/10/25 01:44:21;;;;;;;23.25;15.40;;;13.10;99.90;;;;;;5022398;28;20060;-85
2022/10/25 01:47:05;;;;;;;26.90;14.43;;;13.20;99.90;;;;;;5044475;28;20123;-85
2022/10/25 01:49:40;;;;;;;20.55;13.43;;;13.20;99.90;;;;;;5018638;28;20106;-85
2022/10/25 01:52:06;;;;;;;23.02;14.48;;;13.20;99.90;;;;;;5029859;28;20048;-85
2022/10/25 01:54:31;;;;;;;24.55;14.27;;;13.20;99.90;;;;;;4992061;28;20106;-84
2022/10/25 01:57:16;;;;;;;24.08;14.10;;;13.20;99.90;;;;;;5027984;28;20040;-85
2022/10/25 02:00:04;;;;;;;27.30;14.45;;;13.20;99.90;;;;;;5044571;28;20057;-86
2022/10/25 02:02:33;;;;;;;28.35;14.23;;;13.10;99.90;;;;;;5042549;28;20048;-87
2022/10/25 02:05:22;;;;;;;23.27;13.75;;;13.10;99.90;;;;;;5001662;28;20053;-85
2022/10/25 02:08:23;;;;;;;23.13;13.73;;;13.10;99.90;;;;;;5017197;28;20061;-87
2022/10/25 02:11:08;;;;;;;24.90;13.35;;;13.20;99.90;;;;;;5013677;28;20103;-85
2022/10/25 02:13:43;;;;;;;22.80;13.27;;;13.10;99.90;;;;;;5034202;28;20056;-85
2022/10/25 02:16:15;;;;;;;21.30;14.52;;;13.10;99.90;;;;;;5017327;28;20139;-86
2022/10/25 02:18:43;;;;;;;23.88;13.80;;;13.10;99.90;;;;;;5034353;28;20063;-86
2022/10/25 02:21:09;;;;;;;21.90;14.27;;;13.00;99.90;;;;;;5001208;28;20049;-85
2022/10/25 02:23:35;;;;;;;26.83;14.63;;;13.00;99.90;;;;;;5001404;28;20048;-87
2022/10/25 02:26:01;;;;;;;25.50;14.57;;;13.00;99.90;;;;;;5001043;28;20103;-87
2022/10/25 02:28:27;;;;;;;27.88;14.43;;;12.90;99.90;;;;;;5001909;28;20436;-87
2022/10/25 02:30:53;;;;;;;26.58;14.60;;;12.90;99.90;;;;;;5058360;28;20048;-87
2022/10/25 02:33:21;;;;;;;21.13;13.95;;;13.00;99.90;;;;;;5052759;28;20072;-84
2022/10/25 02:36:09;;;;;;;25.92;15.15;;;12.90;99.90;;;;;;5091610;28;20052;-87
2022/10/25 02:38:34;;;;;;;23.35;14.73;;;13.00;99.90;;;;;;5034505;28;20063;-87
2022/10/25 02:41:01;;;;;;;29.17;14.32;;;13.00;99.90;;;;;;5033958;28;20044;-87
2022/10/25 02:43:27;;;;;;;29.10;13.98;;;13.00;99.90;;;;;;5000649;28;20084;-88
2022/10/25 02:45:52;;;;;;;26.08;14.10;;;13.00;99.90;;;;;;5017199;28;20088;-87
2022/10/25 02:48:18;;;;;;;27.23;14.65;;;13.00;99.90;;;;;;5016700;28;20052;-86
2022/10/25 02:50:43;;;;;;;23.13;14.80;;;13.00;99.90;;;;;;5017796;28;20045;-88
2022/10/25 02:53:09;;;;;;;24.45;14.05;;;13.00;99.90;;;;;;5017549;28;20389;-87
2022/10/25 02:55:37;;;;;;;26.23;14.85;;;13.00;99.90;;;;;;5000778;28;20481;-87
2022/10/25 02:58:03;;;;;;;28.95;14.38;;;13.00;99.90;;;;;;5034937;28;20053;-88
2022/10/25 03:00:28;;;;;;;27.42;14.20;;;13.00;99.90;;;;;;5020446;28;20057;-86
2022/10/25 03:02:54;;;;;;;27.20;14.55;;;13.10;99.90;;;;;;5030492;28;20052;-87
2022/10/25 03:05:20;;;;;;;30.55;14.77;;;13.10;99.90;;;;;;5023934;28;20040;-88
2022/10/25 03:07:45;;;;;;;26.35;13.55;;;13.10;99.90;;;;;;5057998;28;20041;-87
2022/10/25 03:10:11;;;;;;;28.95;14.73;;;13.10;99.90;;;;;;5008174;28;20048;-87
2022/10/25 03:12:37;;;;;;;29.02;13.75;;;13.10;99.90;;;;;;5039708;28;20041;-86
2022/10/25 03:15:02;;;;;;;29.08;14.02;;;13.10;99.90;;;;;;5023971;28;20048;-86
2022/10/25 03:17:28;;;;;;;27.58;14.32;;;13.10;99.90;;;;;;5024311;28;20453;-87
2022/10/25 03:19:54;;;;;;;26.88;14.73;;;13.10;99.90;;;;;;5040322;28;20052;-87
2022/10/25 03:22:19;;;;;;;28.75;14.18;;;13.10;99.90;;;;;;5057307;28;20062;-88
2022/10/25 03:24:45;;;;;;;30.73;14.93;;;13.00;99.90;;;;;;5040986;28;20091;-88
2022/10/25 03:27:11;;;;;;;31.13;15.27;;;13.10;99.90;;;;;;5056219;28;20064;-86
2022/10/25 03:29:36;;;;;;;30.30;15.55;;;13.00;99.90;;;;;;5065432;28;20508;-87
2022/10/25 03:32:04;;;;;;;26.15;15.68;;;13.10;99.90;;;;;;5041279;28;20309;-87
2022/10/25 03:34:30;;;;;;;29.27;15.10;;;13.00;99.90;;;;;;5052221;28;20404;-87
2022/10/25 03:36:57;;;;;;;29.42;16.30;;;13.00;99.90;;;;;;5028042;28;20040;-87
2022/10/25 03:39:23;;;;;;;30.23;14.82;;;13.00;99.90;;;;;;5007366;28;20060;-88
2022/10/25 03:41:49;;;;;;;32.47;15.13;;;13.00;99.90;;;;;;5040567;28;20048;-88
2022/10/25 03:44:15;;;;;;;24.05;14.30;;;13.00;99.90;;;;;;5056799;28;20135;-85
2022/10/25 03:46:40;;;;;;;29.13;15.90;;;13.00;99.90;;;;;;5022946;28;20048;-85
2022/10/25 03:49:06;;;;;;;25.92;15.02;;;12.90;99.90;;;;;;5059747;28;20135;-87
2022/10/25 03:51:32;;;;;;;26.77;14.27;;;12.90;99.90;;;;;;5045558;28;20056;-84
2022/10/25 03:53:57;;;;;;;26.15;14.43;;;12.90;99.90;;;;;;5063798;28;20028;-85
2022/10/25 03:56:23;;;;;;;27.60;14.68;;;12.90;99.90;;;;;;5053242;28;20072;-86
2022/10/25 03:58:49;;;;;;;26.88;14.85;;;12.90;99.90;;;;;;5056002;28;20056;-86
2022/10/25 04:01:15;;;;;;;25.70;13.52;;;12.80;99.90;;;;;;5023519;28;20052;-87
2022/10/25 04:03:42;;;;;;;28.42;13.57;;;12.80;99.90;;;;;;5022838;28;20052;-86
2022/10/25 04:06:08;;;;;;;23.58;13.68;;;12.80;99.90;;;;;;5055862;28;20088;-87
2022/10/25 04:08:34;;;;;;;27.40;14.60;;;12.80;99.90;;;;;;5039354;28;20095;-87
2022/10/25 04:10:59;;;;;;;27.02;13.57;;;12.90;99.90;;;;;;5039935;28;20050;-87
2022/10/25 04:13:25;;;;;;;33.10;13.70;;;12.80;99.90;;;;;;5056070;28;20041;-87
2022/10/25 04:15:51;;;;;;;23.42;12.35;;;12.80;99.90;;;;;;5039674;28;20052;-86
2022/10/25 04:18:16;;;;;;;27.40;12.80;;;12.80;99.90;;;;;;5023246;28;20194;-87
2022/10/25 04:20:42;;;;;;;23.45;12.48;;;12.90;99.90;;;;;;5055850;28;20139;-85
2022/10/25 04:23:07;;;;;;;28.70;14.07;;;12.90;99.90;;;;;;5057018;28;20055;-86
2022/10/25 04:25:33;;;;;;;27.27;13.70;;;12.90;99.90;;;;;;5038986;28;20051;-86
2022/10/25 04:27:59;;;;;;;25.95;12.93;;;12.80;99.90;;;;;;5039646;28;20052;-86
2022/10/25 04:30:25;;;;;;;22.98;12.93;;;12.80;99.90;;;;;;5039646;28;20127;-86
2022/10/25 04:32:50;;;;;;;29.25;13.10;;;12.90;99.90;;;;;;5055886;28;20053;-87
2022/10/25 04:35:16;;;;;;;25.92;13.18;;;12.80;99.90;;;;;;5022283;28;20055;-85
2022/10/25 04:37:42;;;;;;;30.15;13.25;;;12.80;99.90;;;;;;5039102;28;20064;-86
2022/10/25 04:40:08;;;;;;;26.92;13.68;;;12.80;99.90;;;;;;5056111;28;20485;-86
2022/10/25 04:42:34;;;;;;;27.67;13.05;;;12.70;99.90;;;;;;5038874;28;20056;-86
2022/10/25 04:45:00;;;;;;;28.40;13.65;;;12.70;99.90;;;;;;5039054;28;20419;-86
2022/10/25 04:47:28;;;;;;;31.08;13.40;;;12.70;99.90;;;;;;5039033;28;20044;-84
2022/10/25 04:49:54;;;;;;;29.00;13.27;;;12.80;99.90;;;;;;5039282;28;20173;-87
2022/10/25 04:52:20;;;;;;;25.45;13.60;;;12.80;99.90;;;;;;5022689;28;20071;-87
2022/10/25 04:54:46;;;;;;;36.88;14.18;;;12.70;99.90;;;;;;5054857;28;20052;-87
2022/10/25 04:57:11;;;;;;;30.50;13.07;;;12.70;99.90;;;;;;5055324;28;20044;-86
2022/10/25 04:59:37;;;;;;;31.65;15.48;;;12.70;99.90;;;;;;5044886;28;20052;-87
2022/10/25 05:02:04;;;;;;;31.77;14.43;;;12.70;99.90;;;;;;5055387;28;20040;-87
2022/10/25 05:04:35;;;;;;;29.00;14.48;;;12.70;99.90;;;;;;5039941;28;20098;-86
2022/10/25 05:07:01;;;;;;;32.65;14.32;;;12.70;99.90;;;;;;5054981;28;20044;-87
2022/10/25 05:09:27;;;;;;;29.75;14.32;;;12.60;99.90;;;;;;5076533;28;20105;-87
2022/10/25 05:11:52;;;;;;;29.45;14.68;;;12.60;99.90;;;;;;5048146;28;20050;-84
2022/10/25 05:14:18;;;;;;;26.63;13.70;;;12.60;99.90;;;;;;5062731;28;20036;-83
2022/10/25 05:16:44;;;;;;;31.73;14.02;;;12.60;99.90;;;;;;5047709;28;20488;-87
2022/10/25 05:19:09;;;;;;;27.45;14.65;;;12.60;99.90;;;;;;5055760;28;20056;-87
2022/10/25 05:21:35;;;;;;;30.67;14.15;;;12.60;99.90;;;;;;5070753;28;20498;-88
2022/10/25 05:24:01;;;;;;;28.23;14.05;;;12.60;99.90;;;;;;5055221;28;20083;-86
2022/10/25 05:26:26;;;;;;;33.70;14.77;;;12.60;99.90;;;;;;5022249;28;20407;-88
2022/10/25 05:28:52;;;;;;;29.27;14.52;;;12.60;99.90;;;;;;5067885;28;20040;-87
2022/10/25 05:31:20;;;;;;;29.63;15.77;;;12.60;99.90;;;;;;5052245;28;20049;-88
2022/10/25 05:33:48;;;;;;;35.13;15.93;;;12.60;99.90;;;;;;5039132;28;20068;-86
2022/10/25 05:36:13;;;;;;;37.40;15.23;;;12.70;99.90;;;;;;5052245;28;20053;-86
2022/10/25 05:38:39;;;;;;;25.55;14.82;;;12.70;99.90;;;;;;5068268;28;20393;-85
2022/10/25 05:41:05;;;;;;;32.22;14.52;;;12.70;99.90;;;;;;5018782;28;20071;-87
2022/10/25 05:43:31;;;;;;;30.88;14.20;;;12.70;99.90;;;;;;5018457;28;20095;-87
2022/10/25 05:46:03;;;;;;;30.52;14.15;;;12.70;99.90;;;;;;5017979;28;20183;-87
2022/10/25 05:48:30;;;;;;;27.23;14.02;;;12.60;99.90;;;;;;5051042;28;20131;-85
2022/10/25 05:51:29;;;;;;;28.90;13.68;;;12.60;99.90;;;;;;5050762;28;20060;-86
2022/10/25 05:53:57;;;;;;;24.23;13.20;;;12.60;99.90;;;;;;5028610;28;20057;-85
2022/10/25 05:56:24;;;;;;;26.92;12.40;;;12.60;99.90;;;;;;5051074;28;20091;-84
2022/10/25 05:58:51;;;;;;;28.88;12.07;;;12.60;99.90;;;;;;5066956;28;20065;-85
2022/10/25 06:01:18;;;;;;;26.90;11.80;;;12.60;99.90;;;;;;5067999;28;20437;-85
2022/10/25 06:03:47;;;;;;;21.98;11.18;;;12.70;99.90;;;;;;5033934;28;20092;-86
2022/10/25 06:06:12;;;;;;;26.90;11.73;;;12.70;99.90;;;;;;5034498;28;20049;-87
2022/10/25 06:08:38;;;;;;;26.38;12.18;;;12.70;99.90;;;;;;5034022;28;20508;-85
2022/10/25 06:11:09;;;;;;;25.52;11.02;;;12.70;99.90;;;;;;5051091;28;20041;-86
2022/10/25 06:13:35;;;;;;;20.98;11.43;;;12.70;99.90;;;;;;5034466;28;20493;-88
2022/10/25 06:16:09;;;;;;;22.65;10.75;;;12.60;99.90;;;;;;5034191;28;20053;-87
2022/10/25 06:18:37;;;;;;;24.95;10.60;;;12.60;99.90;;;;;;5034480;28;20052;-88
2022/10/25 06:21:07;;;;;;;21.83;10.15;;;12.60;99.90;;;;;;5068549;28;20055;-87
2022/10/25 06:23:36;;;;;;;21.35;10.30;;;12.60;99.90;;;;;;5036555;28;20059;-87
2022/10/25 06:26:06;;;;;;;17.35;10.02;;;12.60;99.90;;;;;;5053825;28;20167;-88
2022/10/25 06:28:32;;;;;;;21.40;10.00;;;12.60;99.90;;;;;;5032855;28;20048;-85
2022/10/25 06:31:09;;;;;;;22.83;10.85;;;12.60;99.90;;;;;;5058007;28;20311;-84
2022/10/25 06:33:34;;;;;;;23.13;9.65;;;12.60;99.90;;;;;;5060555;28;20032;-85
2022/10/25 06:36:01;;;;;;;19.50;9.70;;;12.70;99.90;;;;;;5037250;28;20116;-87
2022/10/25 06:38:27;;;;;;;22.10;9.68;;;12.60;99.90;;;;;;5090703;28;20096;-85
2022/10/25 06:41:18;;;;;;;21.80;9.13;;;12.60;99.90;;;;;;5058911;28;20045;-86
2022/10/25 06:43:44;;;;;;;17.80;9.75;;;12.60;99.90;;;;;;5056081;28;20504;-87
2022/10/25 06:46:30;;;;;;;22.83;9.80;;;12.60;99.90;;;;;;5055237;28;20048;-85
2022/10/25 06:48:56;;;;;;;18.02;9.75;;;12.60;99.90;;;;;;5082873;28;20052;-84
2022/10/25 06:51:24;;;;;;;22.48;9.98;;;12.70;99.90;;;;;;5029357;28;20080;-87
2022/10/25 06:53:54;;;;;;;22.33;9.80;;;12.70;99.90;;;;;;5058587;28;20132;-86
2022/10/25 06:56:19;;;;;;;18.88;9.52;;;12.70;99.90;;;;;;5040090;28;20419;-87
2022/10/25 06:58:45;;;;;;;18.35;9.60;;;12.80;99.90;;;;;;5073528;28;20128;-87
2022/10/25 07:01:12;;;;;;;24.52;9.45;;;12.80;99.90;;;;;;5075379;28;20477;-87
2022/10/25 07:03:38;;;;;;;19.25;9.75;;;12.80;99.90;;;;;;5058289;28;20499;-86
2022/10/25 07:06:08;;;;;;;22.25;9.32;;;12.90;99.90;;;;;;5057767;28;20045;-87
2022/10/25 07:08:37;;;;;;;25.42;9.52;;;12.80;99.90;;;;;;5094003;28;20136;-86
2022/10/25 07:11:03;;;;;;;25.05;9.30;;;12.80;99.90;;;;;;5050320;28;20491;-87
2022/10/25 07:13:30;;;;;;;20.30;8.63;;;12.80;99.90;;;;;;5051307;28;20045;-87
2022/10/25 07:16:06;;;;;;;21.58;8.48;;;12.90;99.90;;;;;;5031986;28;20048;-88
2022/10/25 07:18:38;;;;;;;22.15;8.98;;;13.00;99.90;;;;;;5031340;28;20064;-87
2022/10/25 07:21:19;;;;;;;20.52;8.75;;;13.00;99.90;;;;;;5041235;28;20362;-87
2022/10/25 07:23:44;;;;;;;22.90;8.50;;;13.10;99.90;;;;;;5055615;28;20037;-85
2022/10/25 07:26:27;;;;;;;17.77;8.68;;;13.10;99.90;;;;;;5053765;28;20040;-87
2022/10/25 07:28:54;;;;;;;25.48;8.77;;;13.20;99.90;;;;;;5053391;28;20041;-85
2022/10/25 07:31:22;;;;;;;22.75;8.77;;;13.40;99.90;;;;;;5036942;28;20059;-86
2022/10/25 07:33:48;;;;;;;25.00;9.25;;;13.40;99.90;;;;;;5044078;28;20048;-88
2022/10/25 07:36:14;;;;;;;24.00;9.88;;;13.40;99.90;;;;;;5039213;28;20394;-88
2022/10/25 07:38:40;;;;;;;18.08;7.78;;;13.50;99.90;;;;;;5044917;28;20051;-88
2022/10/25 07:41:06;;;;;;;22.58;8.73;;;13.50;99.90;;;;;;5061825;28;20105;-86
2022/10/25 07:43:31;;;;;;;18.27;8.85;;;13.60;99.90;;;;;;5028861;28;20041;-87
2022/10/25 07:45:57;;;;;;;18.80;8.38;;;13.70;99.90;;;;;;5045863;28;20074;-87
2022/10/25 07:48:26;;;;;;;26.25;9.13;;;13.70;99.90;;;;;;5076107;28;20048;-87
2022/10/25 07:50:51;;;;;;;16.33;9.05;;;13.70;99.90;;;;;;5063923;28;20033;-87
2022/10/25 07:53:17;;;;;;;19.42;9.00;;;13.70;99.90;;;;;;5070160;28;20032;-85
2022/10/25 07:55:48;;;;;;;25.00;9.52;;;13.70;99.90;;;;;;5034462;28;20055;-88
2022/10/25 07:58:13;;;;;;;21.20;8.60;;;13.70;99.90;;;;;;5058784;28;20045;-89
2022/10/25 08:00:40;;;;;;;22.92;9.10;;;13.90;99.90;;;;;;5048537;28;20049;-88
2022/10/25 08:03:06;;;;;;;20.15;9.25;;;14.00;99.90;;;;;;5081792;28;20098;-87
2022/10/25 08:05:32;;;;;;;19.42;9.07;;;14.10;99.90;;;;;;5054686;28;20033;-88
2022/10/25 08:07:57;;;;;;;18.38;9.35;;;14.10;99.90;;;;;;5054535;28;20049;-89
2022/10/25 08:10:24;;;;;;;24.10;8.70;;;14.00;99.90;;;;;;5059454;28;20126;-87
2022/10/25 08:12:50;;;;;;;26.40;9.60;;;14.10;99.90;;;;;;5053837;28;20132;-84
2022/10/25 08:15:16;;;;;;;25.88;10.85;;;13.90;99.90;;;;;;5044376;28;20116;-85
2022/10/25 08:17:42;;;;;;;21.15;10.60;;;14.10;99.90;;;;;;5063199;28;20048;-87
2022/10/25 08:20:08;;;;;;;23.73;10.52;;;14.10;99.90;;;;;;5033594;28;20051;-87
2022/10/25 08:22:34;;;;;;;18.17;9.85;;;14.10;99.90;;;;;;5076362;28;20072;-87
2022/10/25 08:24:59;;;;;;;17.50;10.75;;;14.30;99.90;;;;;;5053786;28;20072;-87
2022/10/25 08:27:25;;;;;;;24.60;10.80;;;14.50;99.90;;;;;;5039511;28;20099;-86
2022/10/25 08:29:51;;;;;;;24.30;11.65;;;14.50;99.90;;;;;;5027716;28;20131;-85
2022/10/25 08:32:16;;;;;;;20.50;10.82;;;14.50;99.90;;;;;;5055000;28;20040;-88
2022/10/25 08:34:42;;;;;;;19.88;10.18;;;14.60;99.90;;;;;;5046371;28;20040;-87
2022/10/25 08:37:10;;;;;;;20.00;9.90;;;14.60;99.90;;;;;;5096541;28;20053;-85
2022/10/25 08:39:36;;;;;;;19.25;10.18;;;14.90;99.90;;;;;;5061937;28;20049;-87
2022/10/25 08:42:02;;;;;;;21.40;10.15;;;15.10;99.90;;;;;;5096819;28;20107;-86
2022/10/25 08:44:41;;;;;;;26.05;9.65;;;15.50;99.90;;;;;;5044293;28;20048;-86
2022/10/25 08:47:09;;;;;;;18.63;9.63;;;15.80;99.90;;;;;;5046358;28;20374;-84
2022/10/25 08:49:41;;;;;;;20.17;9.73;;;16.20;99.90;;;;;;5046399;28;20048;-86
2022/10/25 08:52:44;;;;;;;20.95;9.88;;;15.90;99.90;;;;;;5034576;28;20052;-85
2022/10/25 08:55:40;;;;;;;17.00;9.15;;;15.70;99.90;;;;;;5027140;28;20095;-86
2022/10/25 08:58:13;;;;;;;21.45;9.90;;;15.90;99.90;;;;;;5034601;28;20515;-85
2022/10/25 09:00:39;;;;;;;17.33;9.65;;;15.90;99.90;;;;;;5019861;28;20082;-84
2022/10/25 09:03:11;;;;;;;19.60;9.65;;;15.60;99.90;;;;;;5034419;28;20080;-84
2022/10/25 09:05:41;;;;;;;20.33;9.60;;;15.30;99.90;;;;;;5035748;28;20052;-83
2022/10/25 09:08:25;;;;;;;13.23;8.45;;;15.50;99.90;;;;;;5018885;28;20096;-85
2022/10/25 09:10:56;;;;;;;16.77;8.75;;;15.50;99.90;;;;;;5073292;28;20036;-86
2022/10/25 09:13:32;;;;;;;17.90;8.85;;;15.60;99.90;;;;;;5067819;28;20098;-87
2022/10/25 09:16:01;;;;;;;18.85;9.27;;;15.50;99.90;;;;;;5036397;28;20444;-84
2022/10/25 09:18:51;;;;;;;20.60;9.30;;;15.40;99.90;;;;;;5054604;28;20037;-84
2022/10/25 09:21:28;;;;;;;15.40;7.75;;;15.30;99.90;;;;;;5044651;28;20048;-85
2022/10/25 09:24:06;;;;;;;19.88;8.52;;;15.40;99.90;;;;;;5062214;28;20142;-88
2022/10/25 09:26:40;;;;;;;15.60;8.50;;;15.50;99.90;;;;;;5014837;28;20048;-86
2022/10/25 09:29:38;;;;;;;19.27;7.70;;;15.60;99.90;;;;;;5035828;28;20078;-86
2022/10/25 09:32:17;;;;;;;19.50;7.47;;;15.70;99.90;;;;;;5074136;28;20052;-85
2022/10/25 09:34:43;;;;;;;15.13;7.07;;;15.70;99.90;;;;;;5050307;28;20078;-84
2022/10/25 09:37:30;;;;;;;15.27;7.57;;;15.70;99.90;;;;;;5046880;28;20048;-85
2022/10/25 09:40:03;;;;;;;14.20;6.95;;;15.60;99.90;;;;;;5087286;28;20044;-85
2022/10/25 09:42:38;;;;;;;11.73;6.38;;;15.80;99.90;;;;;;5033771;28;20124;-85
2022/10/25 09:45:18;;;;;;;10.40;6.07;;;15.70;99.90;;;;;;5045622;28;20087;-84
2022/10/25 09:47:52;;;;;;;9.95;6.07;;;15.90;99.90;;;;;;5070316;28;20055;-86
2022/10/25 09:50:29;;;;;;;18.67;6.05;;;15.80;99.90;;;;;;5053636;28;20056;-87
2022/10/25 09:53:06;;;;;;;14.25;5.80;;;15.90;99.90;;;;;;5069396;28;20101;-85
2022/10/25 09:55:59;;;;;;;12.18;5.40;;;16.10;99.90;;;;;;5068704;28;20044;-84
2022/10/25 09:58:29;;;;;;;13.02;4.80;;;16.10;99.90;;;;;;5022191;28;20052;-88
2022/10/25 10:00:55;;;;;;;14.65;5.25;;;15.90;99.90;;;;;;5018853;28;20045;-87
2022/10/25 10:03:21;;;;;;;11.95;5.35;;;16.00;99.90;;;;;;5027529;28;20101;-88
2022/10/25 10:05:55;;;;;;;11.40;4.97;;;16.00;99.90;;;;;;5027149;28;20040;-88
2022/10/25 10:08:22;;;;;;;10.75;4.93;;;16.00;99.90;;;;;;5036517;28;20443;-86
2022/10/25 10:10:48;;;;;;;10.68;4.65;;;15.80;99.90;;;;;;5027457;28;20048;-85
2022/10/25 10:13:27;;;;;;;13.02;5.03;;;15.70;99.90;;;;;;5060640;28;20041;-86
2022/10/25 10:15:55;;;;;;;10.15;4.30;;;15.50;99.90;;;;;;5063125;28;20419;-84
2022/10/25 10:18:23;;;;;;;13.00;4.72;;;15.50;99.90;;;;;;5039133;28;20503;-84
2022/10/25 10:20:56;;;;;;;11.23;4.90;;;15.40;99.90;;;;;;5044095;28;20439;-83
2022/10/25 10:23:22;;;;;;;7.32;3.90;;;15.30;99.90;;;;;;5027941;28;20127;-85
2022/10/25 10:25:48;;;;;;;13.73;4.70;;;15.20;99.90;;;;;;5060623;28;20112;-85
2022/10/25 10:28:13;;;;;;;14.75;5.60;;;15.20;99.90;;;;;;5031570;28;20422;-82
2022/10/25 10:30:39;;;;;;;14.35;5.00;;;15.30;99.90;;;;;;5065994;28;20072;-81
2022/10/25 10:33:08;;;;;;;8.52;4.07;;;15.40;99.90;;;;;;5068617;28;20117;-85
2022/10/25 10:35:37;;;;;;;15.13;5.45;;;15.40;99.90;;;;;;5077449;28;20048;-85
2022/10/25 10:38:18;;;;;;;11.77;5.45;;;15.30;99.90;;;;;;5058924;28;20040;-84
2022/10/25 10:40:43;;;;;;;11.57;5.13;;;15.30;99.90;;;;;;5079659;28;20037;-85
2022/10/25 10:43:22;;;;;;;10.65;5.10;;;15.20;99.90;;;;;;5046015;28;20045;-82
2022/10/25 10:45:48;;;;;;;10.43;4.53;;;15.40;99.90;;;;;;5050703;28;20048;-86
2022/10/25 10:48:21;;;;;;;10.80;4.35;;;15.70;99.90;;;;;;5017265;28;20075;-85
2022/10/25 10:50:50;;;;;;;13.68;4.88;;;16.00;99.90;;;;;;5066698;28;20041;-86
2022/10/25 10:53:16;;;;;;;15.90;5.20;;;16.10;99.90;;;;;;5020692;28;20546;-85
2022/10/25 10:55:46;;;;;;;5.65;4.30;;;16.00;99.90;;;;;;5057332;28;20132;-86
2022/10/25 10:58:29;;;;;;;10.38;4.65;;;15.80;99.90;;;;;;5044987;28;20056;-83
2022/10/25 11:01:00;;;;;;;12.88;4.50;;;15.90;99.90;;;;;;5070691;28;20056;-85
2022/10/25 11:03:38;;;;;;;8.82;3.90;;;16.00;99.90;;;;;;5080268;28;20041;-85
2022/10/25 11:06:12;;;;;;;10.75;4.15;;;16.10;99.90;;;;;;5065666;28;20374;-85
2022/10/25 11:08:40;;;;;;;9.48;3.20;;;16.00;99.90;;;;;;5066718;28;20076;-86
2022/10/25 11:11:12;;;;;;;5.25;3.13;;;16.00;99.90;;;;;;5028167;28;20057;-88
2022/10/25 11:13:38;;;;;;;11.50;3.30;;;15.90;99.90;;;;;;5048666;28;20116;-86
2022/10/25 11:16:21;;;;;;;8.55;3.42;;;15.80;99.90;;;;;;5000851;28;20140;-88
2022/10/25 11:19:11;;;;;;;9.98;3.67;;;15.60;99.90;;;;;;5018115;28;20547;-87
2022/10/25 11:21:43;;;;;;;6.75;3.50;;;15.60;99.90;;;;;;5053966;28;20060;-87
2022/10/25 11:24:38;;;;;;;12.02;3.13;;;15.70;99.90;;;;;;5067103;28;20087;-85
2022/10/25 11:27:24;;;;;;;8.88;3.15;;;16.00;99.90;;;;;;5073385;28;20041;-86
2022/10/25 11:29:49;;;;;;;7.32;2.83;;;16.30;99.90;;;;;;5058955;28;20047;-86
2022/10/25 11:32:24;;;;;;;7.65;2.65;;;16.40;99.90;;;;;;5073316;28;20048;-86
2022/10/25 11:35:21;;;;;;;7.50;3.28;;;16.60;99.90;;;;;;5057194;28;20483;-86
2022/10/25 11:38:21;;;;;;;7.25;3.15;;;16.70;99.90;;;;;;5057456;28;20048;-85
2022/10/25 11:41:24;;;;;;;5.13;3.20;;;16.70;99.90;;;;;;5073995;28;20048;-88
2022/10/25 11:44:29;;;;;;;6.68;3.05;;;16.70;99.90;;;;;;5069282;28;20424;-85
2022/10/25 11:46:58;;;;;;;8.70;3.33;;;16.50;99.90;;;;;;5042947;28;20048;-86
2022/10/25 11:49:48;;;;;;;7.22;3.03;;;16.30;99.90;;;;;;5095258;28;20094;-81
2022/10/25 11:52:27;;;;;;;7.70;3.30;;;16.30;99.90;;;;;;5083665;28;20052;-83
2022/10/25 11:55:14;;;;;;;8.60;2.85;;;16.40;99.90;;;;;;5043151;28;20098;-84
2022/10/25 11:58:10;;;;;;;3.17;2.83;;;16.30;99.90;;;;;;5072867;28;20561;-85
2022/10/25 12:00:51;;;;;;;9.40;3.35;;;16.40;99.90;;;;;;5088880;28;20092;-85
2022/10/25 12:03:55;;;;;;;7.25;3.45;;;16.40;99.90;;;;;;5073218;28;20130;-85
2022/10/25 12:06:28;;;;;;;7.40;3.13;;;16.40;99.90;;;;;;5015398;28;20059;-84
2022/10/25 12:09:19;;;;;;;8.52;3.10;;;16.50;99.90;;;;;;5031937;28;20106;-85
2022/10/25 12:11:47;;;;;;;4.40;2.90;;;16.70;99.90;;;;;;5065819;28;20059;-85
2022/10/25 12:14:15;;;;;;;7.43;2.92;;;16.70;99.90;;;;;;5027896;28;20045;-84
2022/10/25 12:16:41;;;;;;;5.70;2.78;;;16.80;99.90;;;;;;5013778;28;20128;-86
2022/10/25 12:19:27;;;;;;;5.53;3.25;;;16.80;99.90;;;;;;5043980;28;20068;-85
2022/10/25 12:22:00;;;;;;;5.88;3.00;;;16.80;99.90;;;;;;5081681;28;20044;-86
2022/10/25 12:24:34;;;;;;;8.00;3.10;;;17.00;99.90;;;;;;5047432;28;20033;-87
2022/10/25 12:27:00;;;;;;;7.60;3.35;;;16.90;99.90;;;;;;5041628;28;20037;-84
2022/10/25 12:29:33;;;;;;;6.47;2.85;;;16.60;99.90;;;;;;5024112;28;20075;-87
2022/10/25 12:32:00;;;;;;;7.22;2.97;;;16.50;99.90;;;;;;5052474;28;20053;-85
2022/10/25 12:34:47;;;;;;;7.45;3.35;;;16.30;99.90;;;;;;5071994;28;20045;-86
2022/10/25 12:37:36;;;;;;;5.47;2.75;;;16.30;99.90;;;;;;5033246;28;20401;-87
2022/10/25 12:40:02;;;;;;;10.48;3.75;;;16.30;99.90;;;;;;5035730;28;20057;-89
2022/10/25 12:42:36;;;;;;;6.20;3.08;;;16.40;99.90;;;;;;5027228;28;20045;-88
2022/10/25 12:45:27;;;;;;;6.10;2.65;;;16.40;99.90;;;;;;5064038;28;20044;-88
2022/10/25 12:48:18;;;;;;;7.90;2.65;;;16.50;99.90;;;;;;5054147;28;20049;-88
2022/10/25 12:51:09;;;;;;;5.63;2.60;;;16.50;99.90;;;;;;5032476;28;20184;-87
2022/10/25 12:53:56;;;;;;;5.72;2.75;;;16.50;99.90;;;;;;5052130;28;20143;-86
2022/10/25 12:56:44;;;;;;;3.60;2.30;;;16.40;99.90;;;;;;5035094;28;20551;-89